sensor_id;sensor_type;location;lat;lon;timestamp;temperature;humidity
9790;DHT22;4934;50.852;8.098;2023-09-08T00:01:00;14.10;99.90
9790;DHT22;4934;50.852;8.098;2023-09-08T00:03:25;14.00;99.90
9790;DHT22;4934;50.852;8.098;2023-09-08T00:05:51;14.00;99.90
9790;DHT22;4934;50.852;8.098;2023-09-08T00:08:16;13.90;99.90
9790;DHT22;4934;50.852;8.098;2023-09-08T00:10:42;13.90;99.90
9790;DHT22;4934;50.852;8.098;2023-09-08T00:13:08;13.80;99.90
9790;DHT22;4934;50.852;8.098;2023-09-08T00:15:34;13.80;99.90
9790;DHT22;4934;50.852;8.098;2023-09-08T00:18:00;13.80;99.90
9790;DHT22;4934;50.852;8.098;2023-09-08T00:20:26;13.80;99.90
9790;DHT22;4934;50.852;8.098;2023-09-08T00:22:52;13.80;99.90
9790;DHT22;4934;50.852;8.098;2023-09-08T00:25:17;13.80;99.90
9790;DHT22;4934;50.852;8.098;2023-09-08T00:27:43;13.80;99.90
9790;DHT22;4934;50.852;8.098;2023-09-08T00:30:08;13.80;99.90
9790;DHT22;4934;50.852;8.098;2023-09-08T00:32:34;13.70;99.90
9790;DHT22;4934;50.852;8.098;2023-09-08T00:35:00;13.60;99.90
9790;DHT22;4934;50.852;8.098;2023-09-08T00:37:25;13.60;99.90
9790;DHT22;4934;50.852;8.098;2023-09-08T00:39:51;13.50;99.90
9790;DHT22;4934;50.852;8.098;2023-09-08T00:42:17;13.50;99.90
9790;DHT22;4934;50.852;8.098;2023-09-08T00:44:42;13.40;99.90
9790;DHT22;4934;50.852;8.098;2023-09-08T00:47:08;13.40;99.90
9790;DHT22;4934;50.852;8.098;2023-09-08T00:49:33;13.40;99.90
9790;DHT22;4934;50.852;8.098;2023-09-08T00:51:59;13.40;99.90
9790;DHT22;4934;50.852;8.098;2023-09-08T00:54:25;13.30;99.90
9790;DHT22;4934;50.852;8.098;2023-09-08T00:56:55;13.30;99.90
9790;DHT22;4934;50.852;8.098;2023-09-08T00:59:22;13.30;99.90
9790;DHT22;4934;50.852;8.098;2023-09-08T01:01:48;13.30;99.90
9790;DHT22;4934;50.852;8.098;2023-09-08T01:04:13;13.40;99.90
9790;DHT22;4934;50.852;8.098;2023-09-08T01:06:39;13.40;99.90
9790;DHT22;4934;50.852;8.098;2023-09-08T01:09:05;13.30;99.90
9790;DHT22;4934;50.852;8.098;2023-09-08T01:11:31;13.20;99.90
9790;DHT22;4934;50.852;8.098;2023-09-08T01:13:57;13.20;99.90
9790;DHT22;4934;50.852;8.098;2023-09-08T01:16:22;13.20;99.90
9790;DHT22;4934;50.852;8.098;2023-09-08T01:18:49;13.20;99.90
9790;DHT22;4934;50.852;8.098;2023-09-08T01:24:17;13.20;99.90
9790;DHT22;4934;50.852;8.098;2023-09-08T01:26:48;13.10;99.90
9790;DHT22;4934;50.852;8.098;2023-09-08T01:29:16;13.00;99.90
9790;DHT22;4934;50.852;8.098;2023-09-08T01:31:42;13.00;99.90
9790;DHT22;4934;50.852;8.098;2023-09-08T01:34:08;13.00;99.90
9790;DHT22;4934;50.852;8.098;2023-09-08T01:36:34;13.00;99.90
9790;DHT22;4934;50.852;8.098;2023-09-08T01:39:01;12.90;99.90
9790;DHT22;4934;50.852;8.098;2023-09-08T01:41:27;12.90;99.90
9790;DHT22;4934;50.852;8.098;2023-09-08T01:43:52;12.90;99.90
9790;DHT22;4934;50.852;8.098;2023-09-08T01:46:18;12.90;99.90
9790;DHT22;4934;50.852;8.098;2023-09-08T01:48:43;12.80;99.90
9790;DHT22;4934;50.852;8.098;2023-09-08T01:51:10;12.70;99.90
9790;DHT22;4934;50.852;8.098;2023-09-08T01:53:35;12.70;99.90
9790;DHT22;4934;50.852;8.098;2023-09-08T01:56:01;12.70;99.90
9790;DHT22;4934;50.852;8.098;2023-09-08T01:58:26;12.70;99.90
9790;DHT22;4934;50.852;8.098;2023-09-08T02:00:52;12.70;99.90
9790;DHT22;4934;50.852;8.098;2023-09-08T02:03:18;12.70;99.90
9790;DHT22;4934;50.852;8.098;2023-09-08T02:05:44;12.70;99.90
9790;DHT22;4934;50.852;8.098;2023-09-08T02:08:10;12.80;99.90
9790;DHT22;4934;50.852;8.098;2023-09-08T02:10:36;12.80;99.90
9790;DHT22;4934;50.852;8.098;2023-09-08T02:13:04;12.80;99.90
9790;DHT22;4934;50.852;8.098;2023-09-08T02:15:29;12.80;99.90
9790;DHT22;4934;50.852;8.098;2023-09-08T02:17:56;12.70;99.90
9790;DHT22;4934;50.852;8.098;2023-09-08T02:20:21;12.70;99.90
9790;DHT22;4934;50.852;8.098;2023-09-08T02:22:49;12.70;99.90
9790;DHT22;4934;50.852;8.098;2023-09-08T02:25:15;12.70;99.90
9790;DHT22;4934;50.852;8.098;2023-09-08T02:27:41;12.60;99.90
9790;DHT22;4934;50.852;8.098;2023-09-08T02:30:07;12.60;99.90
9790;DHT22;4934;50.852;8.098;2023-09-08T02:32:32;12.50;99.90
9790;DHT22;4934;50.852;8.098;2023-09-08T02:34:58;12.50;99.90
9790;DHT22;4934;50.852;8.098;2023-09-08T02:37:23;12.50;99.90
9790;DHT22;4934;50.852;8.098;2023-09-08T02:39:49;12.60;99.90
9790;DHT22;4934;50.852;8.098;2023-09-08T02:42:14;12.50;99.90
9790;DHT22;4934;50.852;8.098;2023-09-08T02:44:40;12.40;99.90
9790;DHT22;4934;50.852;8.098;2023-09-08T02:47:06;12.40;99.90
9790;DHT22;4934;50.852;8.098;2023-09-08T02:49:31;12.30;99.90
9790;DHT22;4934;50.852;8.098;2023-09-08T02:51:57;12.30;99.90
9790;DHT22;4934;50.852;8.098;2023-09-08T02:54:23;12.30;99.90
9790;DHT22;4934;50.852;8.098;2023-09-08T02:56:48;12.20;99.90
9790;DHT22;4934;50.852;8.098;2023-09-08T02:59:14;12.20;99.90
9790;DHT22;4934;50.852;8.098;2023-09-08T03:01:40;12.10;99.90
9790;DHT22;4934;50.852;8.098;2023-09-08T03:04:05;12.10;99.90
9790;DHT22;4934;50.852;8.098;2023-09-08T03:06:31;12.10;99.90
9790;DHT22;4934;50.852;8.098;2023-09-08T03:08:58;12.00;99.90
9790;DHT22;4934;50.852;8.098;2023-09-08T03:11:24;12.00;99.90
9790;DHT22;4934;50.852;8.098;2023-09-08T03:13:49;12.00;99.90
9790;DHT22;4934;50.852;8.098;2023-09-08T03:16:15;11.90;99.90
9790;DHT22;4934;50.852;8.098;2023-09-08T03:18:42;11.90;99.90
9790;DHT22;4934;50.852;8.098;2023-09-08T03:21:07;11.90;99.90
9790;DHT22;4934;50.852;8.098;2023-09-08T03:23:40;11.80;99.90
9790;DHT22;4934;50.852;8.098;2023-09-08T03:26:06;11.90;99.90
9790;DHT22;4934;50.852;8.098;2023-09-08T03:28:33;11.90;99.90
9790;DHT22;4934;50.852;8.098;2023-09-08T03:30:58;11.90;99.90
9790;DHT22;4934;50.852;8.098;2023-09-08T03:33:24;11.90;99.90
9790;DHT22;4934;50.852;8.098;2023-09-08T03:35:50;11.90;99.90
9790;DHT22;4934;50.852;8.098;2023-09-08T03:38:15;11.90;99.90
9790;DHT22;4934;50.852;8.098;2023-09-08T03:40:41;11.90;99.90
9790;DHT22;4934;50.852;8.098;2023-09-08T03:43:07;11.90;99.90
9790;DHT22;4934;50.852;8.098;2023-09-08T03:45:33;11.90;99.90
9790;DHT22;4934;50.852;8.098;2023-09-08T03:47:59;11.90;99.90
9790;DHT22;4934;50.852;8.098;2023-09-08T03:50:24;11.90;99.90
9790;DHT22;4934;50.852;8.098;2023-09-08T03:52:50;11.80;99.90
9790;DHT22;4934;50.852;8.098;2023-09-08T03:55:17;11.80;99.90
9790;DHT22;4934;50.852;8.098;2023-09-08T03:57:42;11.80;99.90
9790;DHT22;4934;50.852;8.098;2023-09-08T04:00:08;11.80;99.90
9790;DHT22;4934;50.852;8.098;2023-09-08T04:02:36;11.80;99.90
9790;DHT22;4934;50.852;8.098;2023-09-08T04:05:02;11.80;99.90
9790;DHT22;4934;50.852;8.098;2023-09-08T04:07:27;11.80;99.90
9790;DHT22;4934;50.852;8.098;2023-09-08T04:09:53;11.80;99.90
9790;DHT22;4934;50.852;8.098;2023-09-08T04:12:19;11.70;99.90
9790;DHT22;4934;50.852;8.098;2023-09-08T04:14:44;11.70;99.90
9790;DHT22;4934;50.852;8.098;2023-09-08T04:17:10;11.70;99.90
9790;DHT22;4934;50.852;8.098;2023-09-08T04:19:35;11.70;99.90
9790;DHT22;4934;50.852;8.098;2023-09-08T04:22:01;11.60;99.90
9790;DHT22;4934;50.852;8.098;2023-09-08T04:24:27;11.70;99.90
9790;DHT22;4934;50.852;8.098;2023-09-08T04:26:52;11.60;99.90
9790;DHT22;4934;50.852;8.098;2023-09-08T04:29:18;11.60;99.90
9790;DHT22;4934;50.852;8.098;2023-09-08T04:31:44;11.60;99.90
9790;DHT22;4934;50.852;8.098;2023-09-08T04:34:10;11.60;99.90
9790;DHT22;4934;50.852;8.098;2023-09-08T04:36:35;11.60;99.90
9790;DHT22;4934;50.852;8.098;2023-09-08T04:39:01;11.60;99.90
9790;DHT22;4934;50.852;8.098;2023-09-08T04:41:26;11.60;99.90
9790;DHT22;4934;50.852;8.098;2023-09-08T04:43:52;11.60;99.90
9790;DHT22;4934;50.852;8.098;2023-09-08T04:46:18;11.60;99.90
9790;DHT22;4934;50.852;8.098;2023-09-08T04:48:43;11.60;99.90
9790;DHT22;4934;50.852;8.098;2023-09-08T04:51:09;11.60;99.90
9790;DHT22;4934;50.852;8.098;2023-09-08T04:53:34;11.60;99.90
9790;DHT22;4934;50.852;8.098;2023-09-08T04:56:04;11.60;99.90
9790;DHT22;4934;50.852;8.098;2023-09-08T04:58:30;11.60;99.90
9790;DHT22;4934;50.852;8.098;2023-09-08T05:00:56;11.60;99.90
9790;DHT22;4934;50.852;8.098;2023-09-08T05:03:21;11.60;99.90
9790;DHT22;4934;50.852;8.098;2023-09-08T05:05:47;11.60;99.90
9790;DHT22;4934;50.852;8.098;2023-09-08T05:08:12;11.60;99.90
9790;DHT22;4934;50.852;8.098;2023-09-08T05:10:38;11.60;99.90
9790;DHT22;4934;50.852;8.098;2023-09-08T05:13:03;11.60;99.90
9790;DHT22;4934;50.852;8.098;2023-09-08T05:15:29;11.60;99.90
9790;DHT22;4934;50.852;8.098;2023-09-08T05:17:56;11.60;99.90
9790;DHT22;4934;50.852;8.098;2023-09-08T05:20:21;11.70;99.90
9790;DHT22;4934;50.852;8.098;2023-09-08T05:22:47;11.90;99.90
9790;DHT22;4934;50.852;8.098;2023-09-08T05:25:12;11.80;99.90
9790;DHT22;4934;50.852;8.098;2023-09-08T05:27:38;11.70;99.90
9790;DHT22;4934;50.852;8.098;2023-09-08T05:30:04;11.70;99.90
9790;DHT22;4934;50.852;8.098;2023-09-08T05:32:30;11.70;99.90
9790;DHT22;4934;50.852;8.098;2023-09-08T05:34:55;11.70;99.90
9790;DHT22;4934;50.852;8.098;2023-09-08T05:37:21;11.70;99.90
9790;DHT22;4934;50.852;8.098;2023-09-08T05:39:46;11.80;99.90
9790;DHT22;4934;50.852;8.098;2023-09-08T05:42:12;11.80;99.90
9790;DHT22;4934;50.852;8.098;2023-09-08T05:44:37;11.80;99.90
9790;DHT22;4934;50.852;8.098;2023-09-08T05:47:04;11.80;99.90
9790;DHT22;4934;50.852;8.098;2023-09-08T05:49:29;11.90;99.90
9790;DHT22;4934;50.852;8.098;2023-09-08T05:51:55;11.90;99.90
9790;DHT22;4934;50.852;8.098;2023-09-08T05:54:20;12.00;99.90
9790;DHT22;4934;50.852;8.098;2023-09-08T05:56:46;12.00;99.90
9790;DHT22;4934;50.852;8.098;2023-09-08T05:59:11;12.10;99.90
9790;DHT22;4934;50.852;8.098;2023-09-08T06:01:37;12.10;99.90
9790;DHT22;4934;50.852;8.098;2023-09-08T06:04:03;12.20;99.90
9790;DHT22;4934;50.852;8.098;2023-09-08T06:06:29;12.30;99.90
9790;DHT22;4934;50.852;8.098;2023-09-08T06:08:54;12.40;99.90
9790;DHT22;4934;50.852;8.098;2023-09-08T06:11:20;12.50;99.90
9790;DHT22;4934;50.852;8.098;2023-09-08T06:13:46;12.50;99.90
9790;DHT22;4934;50.852;8.098;2023-09-08T06:16:12;12.60;99.90
9790;DHT22;4934;50.852;8.098;2023-09-08T06:18:38;12.70;99.90
9790;DHT22;4934;50.852;8.098;2023-09-08T06:21:06;12.70;99.90
9790;DHT22;4934;50.852;8.098;2023-09-08T06:23:33;12.80;99.90
9790;DHT22;4934;50.852;8.098;2023-09-08T06:26:00;12.90;99.90
9790;DHT22;4934;50.852;8.098;2023-09-08T06:28:27;13.00;99.90
9790;DHT22;4934;50.852;8.098;2023-09-08T06:30:53;13.10;99.90
9790;DHT22;4934;50.852;8.098;2023-09-08T06:33:18;13.30;99.90
9790;DHT22;4934;50.852;8.098;2023-09-08T06:35:45;13.40;99.90
9790;DHT22;4934;50.852;8.098;2023-09-08T06:38:11;13.50;99.90
9790;DHT22;4934;50.852;8.098;2023-09-08T06:40:37;13.50;99.90
9790;DHT22;4934;50.852;8.098;2023-09-08T06:43:02;13.60;99.90
9790;DHT22;4934;50.852;8.098;2023-09-08T06:45:28;13.80;99.90
9790;DHT22;4934;50.852;8.098;2023-09-08T06:47:54;13.90;99.90
9790;DHT22;4934;50.852;8.098;2023-09-08T06:50:21;14.00;99.90
9790;DHT22;4934;50.852;8.098;2023-09-08T06:52:50;14.00;99.90
9790;DHT22;4934;50.852;8.098;2023-09-08T06:55:16;14.10;99.90
9790;DHT22;4934;50.852;8.098;2023-09-08T06:57:45;14.30;99.90
9790;DHT22;4934;50.852;8.098;2023-09-08T07:00:12;14.50;99.90
9790;DHT22;4934;50.852;8.098;2023-09-08T07:02:39;14.60;99.90
9790;DHT22;4934;50.852;8.098;2023-09-08T07:05:05;14.70;99.90
9790;DHT22;4934;50.852;8.098;2023-09-08T07:07:34;14.80;99.90
9790;DHT22;4934;50.852;8.098;2023-09-08T07:10:00;14.90;99.90
9790;DHT22;4934;50.852;8.098;2023-09-08T07:12:25;15.00;99.90
9790;DHT22;4934;50.852;8.098;2023-09-08T07:14:51;15.20;99.90
9790;DHT22;4934;50.852;8.098;2023-09-08T07:17:16;15.30;99.90
9790;DHT22;4934;50.852;8.098;2023-09-08T07:19:42;15.40;99.90
9790;DHT22;4934;50.852;8.098;2023-09-08T07:22:07;15.50;99.90
9790;DHT22;4934;50.852;8.098;2023-09-08T07:24:33;15.60;99.90
9790;DHT22;4934;50.852;8.098;2023-09-08T07:26:59;15.80;99.90
9790;DHT22;4934;50.852;8.098;2023-09-08T07:29:25;15.90;99.90
9790;DHT22;4934;50.852;8.098;2023-09-08T07:31:51;16.10;99.90
9790;DHT22;4934;50.852;8.098;2023-09-08T07:34:17;16.30;99.90
9790;DHT22;4934;50.852;8.098;2023-09-08T07:36:43;16.60;99.90
9790;DHT22;4934;50.852;8.098;2023-09-08T07:39:08;16.90;99.90
9790;DHT22;4934;50.852;8.098;2023-09-08T07:41:34;17.20;99.90
9790;DHT22;4934;50.852;8.098;2023-09-08T07:44:00;17.50;99.90
9790;DHT22;4934;50.852;8.098;2023-09-08T07:46:26;17.70;99.90
9790;DHT22;4934;50.852;8.098;2023-09-08T07:48:52;18.00;99.90
9790;DHT22;4934;50.852;8.098;2023-09-08T07:51:17;18.20;99.90
9790;DHT22;4934;50.852;8.098;2023-09-08T07:53:43;18.40;99.90
9790;DHT22;4934;50.852;8.098;2023-09-08T07:56:09;18.70;99.90
9790;DHT22;4934;50.852;8.098;2023-09-08T07:58:34;18.90;99.90
9790;DHT22;4934;50.852;8.098;2023-09-08T08:01:00;19.10;99.90
9790;DHT22;4934;50.852;8.098;2023-09-08T08:03:25;19.30;99.90
9790;DHT22;4934;50.852;8.098;2023-09-08T08:05:51;19.40;99.90
9790;DHT22;4934;50.852;8.098;2023-09-08T08:08:17;19.50;99.90
9790;DHT22;4934;50.852;8.098;2023-09-08T08:10:43;19.60;99.90
9790;DHT22;4934;50.852;8.098;2023-09-08T08:13:08;19.80;99.90
9790;DHT22;4934;50.852;8.098;2023-09-08T08:15:39;19.90;99.90
9790;DHT22;4934;50.852;8.098;2023-09-08T08:18:06;20.10;99.90
9790;DHT22;4934;50.852;8.098;2023-09-08T08:20:32;20.20;99.90
9790;DHT22;4934;50.852;8.098;2023-09-08T08:23:04;20.40;99.90
9790;DHT22;4934;50.852;8.098;2023-09-08T08:25:30;20.50;99.90
9790;DHT22;4934;50.852;8.098;2023-09-08T08:27:55;20.60;99.90
9790;DHT22;4934;50.852;8.098;2023-09-08T08:30:26;20.70;99.90
9790;DHT22;4934;50.852;8.098;2023-09-08T08:32:52;20.80;99.90
9790;DHT22;4934;50.852;8.098;2023-09-08T08:35:19;20.90;99.90
9790;DHT22;4934;50.852;8.098;2023-09-08T08:37:44;21.00;99.90
9790;DHT22;4934;50.852;8.098;2023-09-08T08:40:11;21.00;99.90
9790;DHT22;4934;50.852;8.098;2023-09-08T08:42:38;21.10;99.90
9790;DHT22;4934;50.852;8.098;2023-09-08T08:45:04;21.20;99.90
9790;DHT22;4934;50.852;8.098;2023-09-08T08:47:30;21.40;99.90
9790;DHT22;4934;50.852;8.098;2023-09-08T08:49:59;21.40;99.90
9790;DHT22;4934;50.852;8.098;2023-09-08T08:52:26;21.60;99.90
9790;DHT22;4934;50.852;8.098;2023-09-08T08:54:52;21.70;99.90
9790;DHT22;4934;50.852;8.098;2023-09-08T08:57:20;21.80;99.90
9790;DHT22;4934;50.852;8.098;2023-09-08T08:59:47;21.90;99.90
9790;DHT22;4934;50.852;8.098;2023-09-08T09:02:14;21.90;99.90
9790;DHT22;4934;50.852;8.098;2023-09-08T09:04:40;22.00;99.90
9790;DHT22;4934;50.852;8.098;2023-09-08T09:07:07;22.00;99.90
9790;DHT22;4934;50.852;8.098;2023-09-08T09:09:33;22.20;99.90
9790;DHT22;4934;50.852;8.098;2023-09-08T09:11:58;22.20;99.90
9790;DHT22;4934;50.852;8.098;2023-09-08T09:14:24;22.20;99.90
9790;DHT22;4934;50.852;8.098;2023-09-08T09:16:50;22.30;99.90
9790;DHT22;4934;50.852;8.098;2023-09-08T09:19:23;22.40;99.90
9790;DHT22;4934;50.852;8.098;2023-09-08T09:21:57;22.50;99.90
9790;DHT22;4934;50.852;8.098;2023-09-08T09:24:39;22.60;99.90
9790;DHT22;4934;50.852;8.098;2023-09-08T09:27:09;22.70;99.90
9790;DHT22;4934;50.852;8.098;2023-09-08T09:29:47;22.70;99.90
9790;DHT22;4934;50.852;8.098;2023-09-08T09:32:13;22.70;99.90
9790;DHT22;4934;50.852;8.098;2023-09-08T09:34:50;22.80;99.90
9790;DHT22;4934;50.852;8.098;2023-09-08T09:37:16;22.80;99.90
9790;DHT22;4934;50.852;8.098;2023-09-08T09:39:42;22.90;99.90
9790;DHT22;4934;50.852;8.098;2023-09-08T09:42:07;22.90;99.90
9790;DHT22;4934;50.852;8.098;2023-09-08T09:44:33;23.00;99.90
9790;DHT22;4934;50.852;8.098;2023-09-08T09:47:00;23.10;99.90
9790;DHT22;4934;50.852;8.098;2023-09-08T09:49:26;23.10;99.90
9790;DHT22;4934;50.852;8.098;2023-09-08T09:51:58;23.30;99.90
9790;DHT22;4934;50.852;8.098;2023-09-08T09:54:23;23.30;99.90
9790;DHT22;4934;50.852;8.098;2023-09-08T09:56:49;23.30;99.90
9790;DHT22;4934;50.852;8.098;2023-09-08T09:59:17;23.40;99.90
9790;DHT22;4934;50.852;8.098;2023-09-08T10:01:43;23.50;99.90
9790;DHT22;4934;50.852;8.098;2023-09-08T10:04:09;23.50;99.90
9790;DHT22;4934;50.852;8.098;2023-09-08T10:06:37;23.50;99.90
9790;DHT22;4934;50.852;8.098;2023-09-08T10:09:04;23.60;99.90
9790;DHT22;4934;50.852;8.098;2023-09-08T10:11:38;23.70;99.90
9790;DHT22;4934;50.852;8.098;2023-09-08T10:14:07;23.70;99.90
9790;DHT22;4934;50.852;8.098;2023-09-08T10:16:39;23.80;99.90
9790;DHT22;4934;50.852;8.098;2023-09-08T10:19:09;23.90;99.90
9790;DHT22;4934;50.852;8.098;2023-09-08T10:21:42;23.90;99.90
9790;DHT22;4934;50.852;8.098;2023-09-08T10:24:15;23.90;99.90
9790;DHT22;4934;50.852;8.098;2023-09-08T10:26:47;24.00;99.90
9790;DHT22;4934;50.852;8.098;2023-09-08T10:29:17;24.10;99.90
9790;DHT22;4934;50.852;8.098;2023-09-08T10:31:44;24.10;99.90
9790;DHT22;4934;50.852;8.098;2023-09-08T10:34:10;24.30;99.90
9790;DHT22;4934;50.852;8.098;2023-09-08T10:36:37;24.40;99.90
9790;DHT22;4934;50.852;8.098;2023-09-08T10:39:27;24.40;99.90
9790;DHT22;4934;50.852;8.098;2023-09-08T10:47:09;24.60;99.90
9790;DHT22;4934;50.852;8.098;2023-09-08T10:49:36;24.70;99.90
9790;DHT22;4934;50.852;8.098;2023-09-08T10:52:08;24.80;99.90
9790;DHT22;4934;50.852;8.098;2023-09-08T10:54:51;24.80;99.90
9790;DHT22;4934;50.852;8.098;2023-09-08T10:57:20;24.90;99.90
9790;DHT22;4934;50.852;8.098;2023-09-08T10:59:57;25.00;99.90
9790;DHT22;4934;50.852;8.098;2023-09-08T11:02:47;25.10;99.90
9790;DHT22;4934;50.852;8.098;2023-09-08T11:05:14;25.20;99.90
9790;DHT22;4934;50.852;8.098;2023-09-08T11:07:44;25.20;99.90
9790;DHT22;4934;50.852;8.098;2023-09-08T11:10:12;25.30;99.90
9790;DHT22;4934;50.852;8.098;2023-09-08T11:12:38;25.30;99.90
9790;DHT22;4934;50.852;8.098;2023-09-08T11:15:05;25.40;99.90
9790;DHT22;4934;50.852;8.098;2023-09-08T11:17:33;25.50;99.90
9790;DHT22;4934;50.852;8.098;2023-09-08T11:20:00;25.50;99.90
9790;DHT22;4934;50.852;8.098;2023-09-08T11:22:26;25.60;99.90
9790;DHT22;4934;50.852;8.098;2023-09-08T11:24:53;25.70;99.90
9790;DHT22;4934;50.852;8.098;2023-09-08T11:27:20;25.80;99.90
9790;DHT22;4934;50.852;8.098;2023-09-08T11:29:46;25.80;99.90
9790;DHT22;4934;50.852;8.098;2023-09-08T11:32:12;26.00;99.90
9790;DHT22;4934;50.852;8.098;2023-09-08T11:34:38;26.00;99.90
9790;DHT22;4934;50.852;8.098;2023-09-08T11:37:14;26.10;99.90
9790;DHT22;4934;50.852;8.098;2023-09-08T11:39:42;26.10;99.90
9790;DHT22;4934;50.852;8.098;2023-09-08T11:42:17;26.30;99.90
9790;DHT22;4934;50.852;8.098;2023-09-08T11:44:43;26.50;99.90
9790;DHT22;4934;50.852;8.098;2023-09-08T11:47:10;26.50;99.90
9790;DHT22;4934;50.852;8.098;2023-09-08T11:49:40;26.60;99.90
9790;DHT22;4934;50.852;8.098;2023-09-08T11:52:06;26.60;99.90
9790;DHT22;4934;50.852;8.098;2023-09-08T11:54:34;26.60;99.90
9790;DHT22;4934;50.852;8.098;2023-09-08T11:57:01;26.70;99.90
9790;DHT22;4934;50.852;8.098;2023-09-08T11:59:28;26.70;99.90
9790;DHT22;4934;50.852;8.098;2023-09-08T12:01:55;26.80;99.90
9790;DHT22;4934;50.852;8.098;2023-09-08T12:04:21;26.90;99.90
9790;DHT22;4934;50.852;8.098;2023-09-08T12:06:49;27.00;99.90
9790;DHT22;4934;50.852;8.098;2023-09-08T12:09:15;26.80;99.90
9790;DHT22;4934;50.852;8.098;2023-09-08T12:11:42;26.90;99.90
9790;DHT22;4934;50.852;8.098;2023-09-08T12:14:12;27.00;99.90
9790;DHT22;4934;50.852;8.098;2023-09-08T12:16:38;27.10;99.90
9790;DHT22;4934;50.852;8.098;2023-09-08T12:19:04;27.20;99.90
9790;DHT22;4934;50.852;8.098;2023-09-08T12:21:30;27.20;99.90
9790;DHT22;4934;50.852;8.098;2023-09-08T12:23:57;27.40;99.90
9790;DHT22;4934;50.852;8.098;2023-09-08T12:26:26;27.60;99.90
9790;DHT22;4934;50.852;8.098;2023-09-08T12:28:52;27.70;99.90
9790;DHT22;4934;50.852;8.098;2023-09-08T12:31:18;27.80;99.90
9790;DHT22;4934;50.852;8.098;2023-09-08T12:33:44;27.80;99.90
9790;DHT22;4934;50.852;8.098;2023-09-08T12:36:12;27.90;99.90
9790;DHT22;4934;50.852;8.098;2023-09-08T12:38:37;27.90;99.90
9790;DHT22;4934;50.852;8.098;2023-09-08T12:41:03;28.10;99.90
9790;DHT22;4934;50.852;8.098;2023-09-08T12:43:29;28.10;99.90
9790;DHT22;4934;50.852;8.098;2023-09-08T12:45:55;28.10;99.90
9790;DHT22;4934;50.852;8.098;2023-09-08T12:48:22;28.10;99.90
9790;DHT22;4934;50.852;8.098;2023-09-08T12:50:48;28.00;99.90
9790;DHT22;4934;50.852;8.098;2023-09-08T12:53:14;28.20;99.90
9790;DHT22;4934;50.852;8.098;2023-09-08T12:55:40;28.20;99.90
9790;DHT22;4934;50.852;8.098;2023-09-08T12:58:05;28.30;99.90
9790;DHT22;4934;50.852;8.098;2023-09-08T13:00:31;28.40;99.90
9790;DHT22;4934;50.852;8.098;2023-09-08T13:02:56;28.50;99.90
9790;DHT22;4934;50.852;8.098;2023-09-08T13:05:22;28.60;99.90
9790;DHT22;4934;50.852;8.098;2023-09-08T13:07:48;28.70;99.90
9790;DHT22;4934;50.852;8.098;2023-09-08T13:10:13;28.90;99.90
9790;DHT22;4934;50.852;8.098;2023-09-08T13:12:39;28.90;99.90
9790;DHT22;4934;50.852;8.098;2023-09-08T13:15:05;28.90;99.90
9790;DHT22;4934;50.852;8.098;2023-09-08T13:17:31;29.00;99.90
9790;DHT22;4934;50.852;8.098;2023-09-08T13:19:56;28.90;99.90
9790;DHT22;4934;50.852;8.098;2023-09-08T13:22:22;28.90;99.90
9790;DHT22;4934;50.852;8.098;2023-09-08T13:24:47;28.70;99.90
9790;DHT22;4934;50.852;8.098;2023-09-08T13:27:13;28.70;99.90
9790;DHT22;4934;50.852;8.098;2023-09-08T13:29:42;28.80;99.90
9790;DHT22;4934;50.852;8.098;2023-09-08T13:32:08;28.60;99.90
9790;DHT22;4934;50.852;8.098;2023-09-08T13:34:33;28.70;99.90
9790;DHT22;4934;50.852;8.098;2023-09-08T13:37:01;28.90;99.90
9790;DHT22;4934;50.852;8.098;2023-09-08T13:39:27;28.70;99.90
9790;DHT22;4934;50.852;8.098;2023-09-08T13:41:54;28.70;99.90
9790;DHT22;4934;50.852;8.098;2023-09-08T13:44:21;28.80;99.90
9790;DHT22;4934;50.852;8.098;2023-09-08T13:46:48;28.80;99.90
9790;DHT22;4934;50.852;8.098;2023-09-08T13:49:14;28.70;99.90
9790;DHT22;4934;50.852;8.098;2023-09-08T13:51:40;28.90;99.90
9790;DHT22;4934;50.852;8.098;2023-09-08T13:54:07;29.00;99.90
9790;DHT22;4934;50.852;8.098;2023-09-08T13:56:33;29.00;99.90
9790;DHT22;4934;50.852;8.098;2023-09-08T13:58:58;29.00;99.90
9790;DHT22;4934;50.852;8.098;2023-09-08T14:01:24;28.90;99.90
9790;DHT22;4934;50.852;8.098;2023-09-08T14:03:50;28.90;99.90
9790;DHT22;4934;50.852;8.098;2023-09-08T14:06:18;29.00;99.90
9790;DHT22;4934;50.852;8.098;2023-09-08T14:08:44;29.10;99.90
9790;DHT22;4934;50.852;8.098;2023-09-08T14:11:10;29.20;99.90
9790;DHT22;4934;50.852;8.098;2023-09-08T14:13:35;29.20;99.90
9790;DHT22;4934;50.852;8.098;2023-09-08T14:16:01;29.20;99.90
9790;DHT22;4934;50.852;8.098;2023-09-08T14:18:26;29.30;99.90
9790;DHT22;4934;50.852;8.098;2023-09-08T14:20:53;29.20;99.90
9790;DHT22;4934;50.852;8.098;2023-09-08T14:23:18;29.20;99.90
9790;DHT22;4934;50.852;8.098;2023-09-08T14:25:44;29.20;99.90
9790;DHT22;4934;50.852;8.098;2023-09-08T14:28:10;29.30;99.90
9790;DHT22;4934;50.852;8.098;2023-09-08T14:30:35;29.30;99.90
9790;DHT22;4934;50.852;8.098;2023-09-08T14:33:01;29.30;99.90
9790;DHT22;4934;50.852;8.098;2023-09-08T14:35:26;29.20;99.90
9790;DHT22;4934;50.852;8.098;2023-09-08T14:37:52;29.20;99.90
9790;DHT22;4934;50.852;8.098;2023-09-08T14:40:18;29.20;99.90
9790;DHT22;4934;50.852;8.098;2023-09-08T14:42:43;29.30;99.90
9790;DHT22;4934;50.852;8.098;2023-09-08T14:45:09;29.20;99.90
9790;DHT22;4934;50.852;8.098;2023-09-08T14:47:35;29.20;99.30
9790;DHT22;4934;50.852;8.098;2023-09-08T14:50:00;29.20;99.90
9790;DHT22;4934;50.852;8.098;2023-09-08T14:52:26;29.20;99.90
9790;DHT22;4934;50.852;8.098;2023-09-08T14:54:52;29.20;96.90
9790;DHT22;4934;50.852;8.098;2023-09-08T14:57:17;29.30;99.60
9790;DHT22;4934;50.852;8.098;2023-09-08T14:59:43;29.20;98.00
9790;DHT22;4934;50.852;8.098;2023-09-08T15:02:09;29.20;97.60
9790;DHT22;4934;50.852;8.098;2023-09-08T15:04:35;29.00;99.50
9790;DHT22;4934;50.852;8.098;2023-09-08T15:07:00;29.10;99.90
9790;DHT22;4934;50.852;8.098;2023-09-08T15:09:26;29.00;98.50
9790;DHT22;4934;50.852;8.098;2023-09-08T15:11:52;29.10;99.90
9790;DHT22;4934;50.852;8.098;2023-09-08T15:14:17;29.00;98.40
9790;DHT22;4934;50.852;8.098;2023-09-08T15:16:43;28.90;98.00
9790;DHT22;4934;50.852;8.098;2023-09-08T15:19:08;29.00;98.40
9790;DHT22;4934;50.852;8.098;2023-09-08T15:21:34;29.00;98.30
9790;DHT22;4934;50.852;8.098;2023-09-08T15:24:00;29.00;98.70
9790;DHT22;4934;50.852;8.098;2023-09-08T15:26:27;29.00;99.70
9790;DHT22;4934;50.852;8.098;2023-09-08T15:28:53;29.00;99.90
9790;DHT22;4934;50.852;8.098;2023-09-08T15:31:19;28.90;99.40
9790;DHT22;4934;50.852;8.098;2023-09-08T15:33:45;28.90;99.90
9790;DHT22;4934;50.852;8.098;2023-09-08T15:36:10;28.80;97.80
9790;DHT22;4934;50.852;8.098;2023-09-08T15:38:36;28.80;97.70
9790;DHT22;4934;50.852;8.098;2023-09-08T15:43:35;28.80;99.30
9790;DHT22;4934;50.852;8.098;2023-09-08T15:46:01;28.80;98.60
9790;DHT22;4934;50.852;8.098;2023-09-08T15:48:27;28.70;98.00
9790;DHT22;4934;50.852;8.098;2023-09-08T15:50:52;28.70;97.50
9790;DHT22;4934;50.852;8.098;2023-09-08T15:53:18;28.60;98.60
9790;DHT22;4934;50.852;8.098;2023-09-08T15:55:43;28.50;99.00
9790;DHT22;4934;50.852;8.098;2023-09-08T15:58:09;28.60;99.50
9790;DHT22;4934;50.852;8.098;2023-09-08T16:00:35;28.60;99.50
9790;DHT22;4934;50.852;8.098;2023-09-08T16:03:01;28.60;99.90
9790;DHT22;4934;50.852;8.098;2023-09-08T16:05:27;28.60;99.90
9790;DHT22;4934;50.852;8.098;2023-09-08T16:07:52;28.60;99.70